Belmont, Indiana
Current Conditions -  °F | °C
As of 4:15 PM on Tuesday 21 Oct 2014 (Local Time) from K1II Reporting Station
Overcast Overcast  
Wind Chill: 55°   Ceiling: 6000
Heat Index: 55°   Visibility: 10mi
Dew Point: 41°   Wind: 13mph
Humidity: 58%   Direction: 350°N
Pressure: 30.1"   Gusts: 16mph
Location:  39.193°N, 86.2182°W
Report Text: K1II 212015Z AUTO 35011G14KT 10SM OVC060 13/05 A3010 RMK AO2
Loading
Personal Weather Stations






























Interactive Weather Map
Tropical Storm Tracking
New forecast layout! Learn more

10-Day Weather Forecast

Advertisements
Track Severe Weather on mobile